createdAt,value
2022-09-17T00:01:04.542Z,1.80
2022-09-17T00:03:33.086Z,1.90
2022-09-17T00:06:06.100Z,1.30
2022-09-17T00:08:33.617Z,1.80
2022-09-17T00:11:16.266Z,1.37
2022-09-17T00:13:44.349Z,1.73
2022-09-17T00:16:12.273Z,1.70
2022-09-17T00:18:41.741Z,1.80
2022-09-17T00:21:17.179Z,2.17
2022-09-17T00:23:44.238Z,2.50
2022-09-17T00:26:10.982Z,2.00
2022-09-17T00:28:37.655Z,1.60
2022-09-17T00:31:10.832Z,1.70
2022-09-17T00:33:37.521Z,1.70
2022-09-17T00:36:06.379Z,2.20
2022-09-17T00:38:33.595Z,1.63
2022-09-17T00:41:00.830Z,2.10
2022-09-17T00:43:36.116Z,2.20
2022-09-17T00:46:04.708Z,1.83
2022-09-17T00:48:31.749Z,2.47
2022-09-17T00:51:01.333Z,1.87
2022-09-17T00:53:28.632Z,2.43
2022-09-17T00:56:03.879Z,1.40
2022-09-17T00:58:36.715Z,2.40
2022-09-17T01:01:06.013Z,1.93
2022-09-17T01:03:33.295Z,1.70
2022-09-17T01:06:10.857Z,2.47
2022-09-17T01:08:55.296Z,2.53
2022-09-17T01:11:52.102Z,2.17
2022-09-17T01:14:46.463Z,2.37
2022-09-17T01:17:42.973Z,2.00
2022-09-17T01:20:43.776Z,2.40
2022-09-17T01:23:44.627Z,2.10
2022-09-17T01:26:50.064Z,2.37
2022-09-17T01:29:48.154Z,2.40
2022-09-17T01:32:31.638Z,2.30
2022-09-17T01:35:14.909Z,2.13
2022-09-17T01:37:56.702Z,2.60
2022-09-17T01:40:34.711Z,2.37
2022-09-17T01:43:24.583Z,2.30
2022-09-17T01:45:56.497Z,2.33
2022-09-17T01:48:29.544Z,2.70
2022-09-17T01:51:11.330Z,1.70
2022-09-17T01:54:00.456Z,2.20
2022-09-17T01:56:48.359Z,2.47
2022-09-17T01:59:41.104Z,2.00
2022-09-17T02:02:14.058Z,2.13
2022-09-17T02:04:51.371Z,1.60
2022-09-17T02:07:23.398Z,3.03
2022-09-17T02:10:03.880Z,2.17
2022-09-17T02:12:36.350Z,2.10
2022-09-17T02:15:20.277Z,2.53
2022-09-17T02:17:52.205Z,2.33
2022-09-17T02:20:23.703Z,2.43
2022-09-17T02:22:56.737Z,2.13
2022-09-17T02:25:33.435Z,2.70
2022-09-17T02:28:08.576Z,2.43
2022-09-17T02:30:35.286Z,2.73
2022-09-17T02:33:04.842Z,3.23
2022-09-17T02:35:32.205Z,4.20
2022-09-17T02:37:59.498Z,3.80
2022-09-17T02:40:29.068Z,3.20
2022-09-17T02:43:11.937Z,3.33
2022-09-17T02:46:00.047Z,3.47
2022-09-17T02:48:41.204Z,4.10
2022-09-17T02:51:52.859Z,3.53
2022-09-17T02:54:28.553Z,3.00
2022-09-17T02:57:08.721Z,3.50
2022-09-17T03:00:15.493Z,2.37
2022-09-17T03:02:56.626Z,3.33
2022-09-17T03:05:24.591Z,2.40
2022-09-17T03:07:51.539Z,2.63
2022-09-17T03:10:18.719Z,2.00
2022-09-17T03:12:45.327Z,2.43
2022-09-17T03:15:11.869Z,2.60
2022-09-17T03:17:38.435Z,2.10
2022-09-17T03:20:05.681Z,2.43
2022-09-17T03:22:32.951Z,2.57
2022-09-17T03:24:59.503Z,2.13
2022-09-17T03:27:26.124Z,2.83
2022-09-17T03:29:52.666Z,1.87
2022-09-17T03:32:19.322Z,2.70
2022-09-17T03:34:46.916Z,2.60
2022-09-17T03:37:13.770Z,2.43
2022-09-17T03:39:40.314Z,2.20
2022-09-17T03:42:07.045Z,2.47
2022-09-17T03:44:33.591Z,2.23
2022-09-17T03:47:00.176Z,2.33
2022-09-17T03:49:26.903Z,2.53
2022-09-17T03:51:53.458Z,2.47
2022-09-17T03:54:20.059Z,2.90
2022-09-17T03:56:46.660Z,2.77
2022-09-17T03:59:13.260Z,3.00
2022-09-17T04:01:39.970Z,3.37
2022-09-17T04:04:06.713Z,2.60
2022-09-17T04:06:33.302Z,3.73
2022-09-17T04:09:00.942Z,3.50
2022-09-17T04:11:27.665Z,3.10
2022-09-17T04:13:54.205Z,2.80
2022-09-17T04:16:20.789Z,4.03
2022-09-17T04:18:47.550Z,3.87
2022-09-17T04:21:14.107Z,3.63
2022-09-17T04:23:40.650Z,4.73
2022-09-17T04:26:07.214Z,4.17
2022-09-17T04:28:33.893Z,3.67
2022-09-17T04:31:00.531Z,4.33
2022-09-17T04:33:27.153Z,4.13
2022-09-17T04:35:54.229Z,4.90
2022-09-17T04:38:22.080Z,3.63
2022-09-17T04:40:48.865Z,4.80
2022-09-17T04:43:15.498Z,3.77
2022-09-17T04:45:44.809Z,3.80
2022-09-17T04:48:11.353Z,4.20
2022-09-17T04:50:37.925Z,4.57
2022-09-17T04:53:04.619Z,3.23
2022-09-17T04:55:31.286Z,3.73
2022-09-17T04:57:58.010Z,4.50
2022-09-17T05:00:25.141Z,3.70
2022-09-17T05:02:54.047Z,3.60
2022-09-17T05:05:20.995Z,4.20
2022-09-17T05:07:47.717Z,3.87
2022-09-17T05:10:17.564Z,3.43
2022-09-17T05:12:55.095Z,4.10
2022-09-17T05:15:23.195Z,3.70
2022-09-17T05:17:50.326Z,4.43
2022-09-17T05:20:17.760Z,4.53
2022-09-17T05:22:49.867Z,4.53
2022-09-17T05:25:18.653Z,4.60
2022-09-17T05:27:45.848Z,4.03
2022-09-17T05:30:13.071Z,3.30
2022-09-17T05:32:40.638Z,4.20
2022-09-17T05:35:08.401Z,4.00
2022-09-17T05:37:35.379Z,3.80
2022-09-17T05:40:03.882Z,4.13
2022-09-17T05:42:30.594Z,4.10
2022-09-17T05:44:57.191Z,3.63
2022-09-17T05:47:26.929Z,2.77
2022-09-17T05:49:53.728Z,2.73
2022-09-17T05:52:20.447Z,3.80
2022-09-17T05:54:47.129Z,3.07
2022-09-17T05:57:15.831Z,2.40
2022-09-17T05:59:42.493Z,3.10
2022-09-17T06:02:13.323Z,2.67
2022-09-17T06:04:40.045Z,2.97
2022-09-17T06:07:09.071Z,3.60
2022-09-17T06:09:37.416Z,3.40
2022-09-17T06:12:05.289Z,4.07
2022-09-17T06:14:31.853Z,3.60
2022-09-17T06:16:58.412Z,4.17
2022-09-17T06:19:25.010Z,4.83
2022-09-17T06:21:51.803Z,3.50
2022-09-17T06:24:18.371Z,2.60
2022-09-17T06:26:45.276Z,2.50
2022-09-17T06:29:14.993Z,3.07
2022-09-17T06:31:44.577Z,3.73
2022-09-17T06:34:11.897Z,4.53
2022-09-17T06:36:38.486Z,3.13
2022-09-17T06:39:05.295Z,3.00
2022-09-17T06:41:32.030Z,2.97
2022-09-17T06:43:58.842Z,2.90
2022-09-17T06:46:25.620Z,3.33
2022-09-17T06:48:52.195Z,3.13
2022-09-17T06:51:18.824Z,3.10
2022-09-17T06:53:45.513Z,3.33
2022-09-17T06:56:12.212Z,3.27
2022-09-17T06:58:41.417Z,2.90
2022-09-17T07:01:08.953Z,2.60
2022-09-17T07:03:35.658Z,2.73
2022-09-17T07:06:02.965Z,2.83
2022-09-17T07:08:31.635Z,2.07
2022-09-17T07:10:58.859Z,2.50
2022-09-17T07:13:25.738Z,2.30
2022-09-17T07:15:57.594Z,2.00
2022-09-17T07:18:25.137Z,1.70
2022-09-17T07:21:00.194Z,1.90
2022-09-17T07:23:29.365Z,1.60
2022-09-17T07:25:58.151Z,2.00
2022-09-17T07:28:25.641Z,1.50
2022-09-17T07:30:53.141Z,1.90
2022-09-17T07:33:23.365Z,1.70
2022-09-17T07:35:54.591Z,2.30
2022-09-17T07:38:21.466Z,1.50
2022-09-17T07:41:15.523Z,1.80
2022-09-17T07:43:43.379Z,2.13
2022-09-17T07:46:20.440Z,1.57
2022-09-17T07:48:47.992Z,1.80
2022-09-17T07:51:22.787Z,1.80
2022-09-17T07:53:57.821Z,1.47
2022-09-17T07:56:25.708Z,2.10
2022-09-17T07:58:52.431Z,2.20
2022-09-17T08:01:21.165Z,1.67
2022-09-17T08:03:52.510Z,2.03
2022-09-17T08:06:26.077Z,1.83
2022-09-17T08:13:34.214Z,1.83
2022-09-17T08:16:06.420Z,1.97
2022-09-17T08:18:33.384Z,1.83
2022-09-17T08:21:01.829Z,1.60
2022-09-17T08:23:30.242Z,2.23
2022-09-17T08:25:59.361Z,1.43
2022-09-17T08:28:28.410Z,2.30
2022-09-17T08:30:59.689Z,1.30
2022-09-17T08:33:26.340Z,1.87
2022-09-17T08:35:59.389Z,1.90
2022-09-17T08:38:33.479Z,2.10
2022-09-17T08:41:10.230Z,1.70
2022-09-17T08:44:07.346Z,1.50
2022-09-17T08:46:47.680Z,1.73
2022-09-17T08:49:23.386Z,1.57
2022-09-17T08:51:59.589Z,1.73
2022-09-17T08:54:40.661Z,1.83
2022-09-17T08:57:18.376Z,1.70
2022-09-17T09:00:09.882Z,1.53
2022-09-17T09:02:56.069Z,1.60
2022-09-17T09:05:37.103Z,1.50
2022-09-17T09:08:10.869Z,1.90
2022-09-17T09:10:49.870Z,1.50
2022-09-17T09:13:19.438Z,2.20
2022-09-17T09:15:55.142Z,1.40
2022-09-17T09:18:25.065Z,1.30
2022-09-17T09:21:10.461Z,1.60
2022-09-17T09:24:00.542Z,1.80
2022-09-17T09:26:40.321Z,1.77
2022-09-17T09:29:25.766Z,1.67
2022-09-17T09:32:34.500Z,2.63
2022-09-17T09:35:11.841Z,1.50
2022-09-17T09:37:42.982Z,1.83
2022-09-17T09:40:41.896Z,1.40
2022-09-17T09:43:19.432Z,1.40
2022-09-17T09:46:15.478Z,1.70
2022-09-17T09:49:06.936Z,1.20
2022-09-17T09:52:13.651Z,1.10
2022-09-17T09:55:02.209Z,1.53
2022-09-17T09:57:39.658Z,1.20
2022-09-17T10:00:29.936Z,1.30
2022-09-17T10:03:35.843Z,1.70
2022-09-17T10:06:06.066Z,1.20
2022-09-17T10:08:37.891Z,0.70
2022-09-17T10:11:13.745Z,1.27
2022-09-17T10:13:41.574Z,1.23
2022-09-17T10:16:17.726Z,1.20
2022-09-17T10:18:48.390Z,1.43
2022-09-17T10:21:41.328Z,0.93
2022-09-17T10:24:28.710Z,1.10
2022-09-17T10:27:05.521Z,0.90
2022-09-17T10:29:33.154Z,1.67
2022-09-17T10:32:00.407Z,1.17
2022-09-17T10:34:29.384Z,0.90
2022-09-17T10:36:57.150Z,1.63
2022-09-17T10:39:26.650Z,1.13
2022-09-17T10:42:04.687Z,1.20
2022-09-17T10:44:36.770Z,1.30
2022-09-17T10:47:18.856Z,0.80
2022-09-17T10:49:56.194Z,1.47
2022-09-17T10:52:47.538Z,1.20
2022-09-17T10:55:42.076Z,1.30
2022-09-17T10:58:08.608Z,1.03
2022-09-17T11:01:03.089Z,1.03
2022-09-17T11:04:07.916Z,0.87
2022-09-17T11:06:40.452Z,0.80
2022-09-17T11:09:26.637Z,1.03
2022-09-17T11:12:32.113Z,0.90
2022-09-17T11:15:25.237Z,0.77
2022-09-17T11:18:12.455Z,0.80
2022-09-17T11:21:23.886Z,1.30
2022-09-17T11:23:59.017Z,0.87
2022-09-17T11:26:45.437Z,0.60
2022-09-17T11:29:30.693Z,0.50
2022-09-17T11:32:06.255Z,1.00
2022-09-17T11:34:47.015Z,1.20
2022-09-17T11:37:22.593Z,0.70
2022-09-17T11:39:57.301Z,0.73
2022-09-17T11:42:46.554Z,0.80
2022-09-17T11:45:24.733Z,0.63
2022-09-17T11:48:09.441Z,1.23
2022-09-17T11:50:44.317Z,0.60
2022-09-17T11:53:24.995Z,0.70
2022-09-17T11:55:57.386Z,0.90
2022-09-17T11:58:39.432Z,0.80
2022-09-17T12:01:15.959Z,1.03
2022-09-17T12:03:56.157Z,0.80
2022-09-17T12:06:57.581Z,0.67
2022-09-17T12:09:28.056Z,1.10
2022-09-17T12:12:47.659Z,0.57
2022-09-17T12:15:22.418Z,0.63
2022-09-17T12:18:31.864Z,0.90
2022-09-17T12:21:01.736Z,0.70
2022-09-17T12:23:42.182Z,0.50
2022-09-17T12:26:15.593Z,0.93
2022-09-17T12:29:00.951Z,0.70
2022-09-17T12:31:35.122Z,0.80
2022-09-17T12:34:35.405Z,0.60
2022-09-17T12:37:19.654Z,0.93
2022-09-17T12:40:20.445Z,0.77
2022-09-17T12:43:15.030Z,1.00
2022-09-17T12:46:02.314Z,0.50
2022-09-17T12:48:47.522Z,0.47
2022-09-17T12:51:23.392Z,0.40
2022-09-17T12:54:10.357Z,0.70
2022-09-17T12:57:07.465Z,0.70
2022-09-17T12:59:39.156Z,0.60
2022-09-17T13:02:41.389Z,0.80
2022-09-17T13:05:22.813Z,0.70
2022-09-17T13:08:01.889Z,0.63
2022-09-17T13:10:43.503Z,0.47
2022-09-17T13:13:30.106Z,0.70
2022-09-17T13:16:19.897Z,0.60
2022-09-17T13:19:18.930Z,0.80
2022-09-17T13:22:16.927Z,0.53
2022-09-17T13:27:31.190Z,0.57
2022-09-17T13:29:58.430Z,1.37
2022-09-17T13:32:34.547Z,0.53
2022-09-17T13:35:09.889Z,0.40
2022-09-17T13:37:40.265Z,0.57
2022-09-17T13:40:22.561Z,0.93
2022-09-17T13:42:55.370Z,0.90
2022-09-17T13:45:23.210Z,0.97
2022-09-17T13:48:02.864Z,0.90
2022-09-17T13:50:33.845Z,0.70
2022-09-17T13:53:12.521Z,0.80
2022-09-17T13:55:48.910Z,1.27
2022-09-17T13:58:18.567Z,1.07
2022-09-17T14:00:54.387Z,0.70
2022-09-17T14:03:40.621Z,0.60
2022-09-17T14:06:17.973Z,0.90
2022-09-17T14:08:44.542Z,0.53
2022-09-17T14:11:23.474Z,0.80
2022-09-17T14:13:51.820Z,0.73
2022-09-17T14:16:36.940Z,0.60
2022-09-17T14:19:15.684Z,0.73
2022-09-17T14:22:05.731Z,0.60
2022-09-17T14:24:48.794Z,1.30
2022-09-17T14:27:15.430Z,1.30
2022-09-17T14:29:58.584Z,1.23
2022-09-17T14:32:32.248Z,0.80
2022-09-17T14:35:02.343Z,0.90
2022-09-17T14:37:29.341Z,0.90
2022-09-17T14:39:56.134Z,0.80
2022-09-17T14:42:30.982Z,0.70
2022-09-17T14:45:02.197Z,0.77
2022-09-17T14:47:28.851Z,1.17
2022-09-17T14:49:55.435Z,1.13
2022-09-17T14:52:30.462Z,1.23
2022-09-17T14:55:15.911Z,1.07
2022-09-17T14:57:45.792Z,1.20
2022-09-17T15:00:24.349Z,0.90
2022-09-17T15:02:55.778Z,0.90
2022-09-17T15:05:27.110Z,1.03
2022-09-17T15:08:10.342Z,1.43
2022-09-17T15:10:46.986Z,1.10
2022-09-17T15:13:23.582Z,1.13
2022-09-17T15:15:59.220Z,1.03
2022-09-17T15:18:57.217Z,1.00
2022-09-17T15:21:41.257Z,1.43
2022-09-17T15:24:37.461Z,0.90
2022-09-17T15:27:28.503Z,0.93
2022-09-17T15:30:20.220Z,1.30
2022-09-17T15:33:00.842Z,1.43
2022-09-17T15:35:30.705Z,1.17
2022-09-17T15:38:23.235Z,1.60
2022-09-17T15:40:51.599Z,1.03
2022-09-17T15:43:33.778Z,1.00
2022-09-17T15:46:29.396Z,1.10
2022-09-17T15:48:59.158Z,1.50
2022-09-17T15:51:35.434Z,0.63
2022-09-17T15:54:05.463Z,1.90
2022-09-17T15:56:37.997Z,1.27
2022-09-17T15:59:26.382Z,1.47
2022-09-17T16:01:55.660Z,1.10
2022-09-17T16:04:26.889Z,0.93
2022-09-17T16:06:57.390Z,1.10
2022-09-17T16:09:48.766Z,1.63
2022-09-17T16:12:24.114Z,1.40
2022-09-17T16:14:53.536Z,1.30
2022-09-17T16:17:24.843Z,1.13
2022-09-17T16:19:51.665Z,0.83
2022-09-17T16:22:18.261Z,1.00
2022-09-17T16:24:44.809Z,0.60
2022-09-17T16:27:17.978Z,0.70
2022-09-17T16:29:44.509Z,0.90
2022-09-17T16:32:11.386Z,0.80
2022-09-17T16:34:37.996Z,0.53
2022-09-17T16:37:04.604Z,0.47
2022-09-17T16:39:31.112Z,0.80
2022-09-17T16:41:57.762Z,1.30
2022-09-17T16:44:24.284Z,0.80
2022-09-17T16:46:50.910Z,0.90
2022-09-17T16:49:17.525Z,0.80
2022-09-17T16:51:44.111Z,0.93
2022-09-17T16:54:10.738Z,1.03
2022-09-17T16:56:37.251Z,1.10
2022-09-17T16:59:04.070Z,1.20
2022-09-17T17:01:32.302Z,1.57
2022-09-17T17:04:00.879Z,0.80
2022-09-17T17:06:27.591Z,1.13
2022-09-17T17:08:54.372Z,1.83
2022-09-17T17:11:21.104Z,0.97
2022-09-17T17:13:47.812Z,1.00
2022-09-17T17:16:15.410Z,1.23
2022-09-17T17:18:43.890Z,1.30
2022-09-17T17:21:12.550Z,1.40
2022-09-17T17:23:43.335Z,2.03
2022-09-17T17:26:09.999Z,1.47
2022-09-17T17:28:36.645Z,1.10
2022-09-17T17:31:04.313Z,1.53
2022-09-17T17:33:30.920Z,1.00
2022-09-17T17:36:05.320Z,1.67
2022-09-17T17:38:34.174Z,1.30
2022-09-17T17:41:13.538Z,1.73
2022-09-17T17:43:41.222Z,1.90
2022-09-17T17:46:09.783Z,2.07
2022-09-17T17:48:36.763Z,2.70
2022-09-17T17:51:09.385Z,1.97
2022-09-17T17:53:36.523Z,1.50
2022-09-17T17:56:06.410Z,1.77
2022-09-17T17:58:34.125Z,1.53
2022-09-17T18:01:00.888Z,1.80
2022-09-17T18:03:27.467Z,2.80
2022-09-17T18:05:57.869Z,1.93
2022-09-17T18:08:24.929Z,2.03
2022-09-17T18:10:56.211Z,1.47
2022-09-17T18:13:23.697Z,1.50
2022-09-17T18:15:55.558Z,1.60
2022-09-17T18:18:23.706Z,1.33
2022-09-17T18:20:51.704Z,1.70
2022-09-17T18:23:18.628Z,1.40
2022-09-17T18:25:55.990Z,1.80
2022-09-17T18:28:23.114Z,1.60
2022-09-17T18:30:50.450Z,1.33
2022-09-17T18:33:19.253Z,1.10
2022-09-17T18:35:46.592Z,1.27
2022-09-17T18:38:15.946Z,1.27
2022-09-17T18:40:43.303Z,1.97
2022-09-17T18:43:10.302Z,1.27
2022-09-17T18:45:36.826Z,1.10
2022-09-17T18:48:05.858Z,1.57
2022-09-17T18:50:32.641Z,1.23
2022-09-17T18:52:59.311Z,1.43
2022-09-17T18:55:26.537Z,1.90
2022-09-17T18:57:53.549Z,1.43
2022-09-17T19:00:21.197Z,1.80
2022-09-17T19:02:48.794Z,1.50
2022-09-17T19:05:16.951Z,2.43
2022-09-17T19:07:45.350Z,1.57
2022-09-17T19:10:12.917Z,1.60
2022-09-17T19:12:39.866Z,1.20
2022-09-17T19:15:08.407Z,1.90
2022-09-17T19:17:35.021Z,1.67
2022-09-17T19:20:02.100Z,1.67
2022-09-17T19:22:28.703Z,1.27
2022-09-17T19:24:55.240Z,1.23
2022-09-17T19:27:21.758Z,1.33
2022-09-17T19:29:48.384Z,1.10
2022-09-17T19:32:14.969Z,1.47
2022-09-17T19:34:42.554Z,1.07
2022-09-17T19:37:09.168Z,1.03
2022-09-17T19:39:35.764Z,1.17
2022-09-17T19:42:02.342Z,1.00
2022-09-17T19:44:29.580Z,1.40
2022-09-17T19:46:56.309Z,1.30
2022-09-17T19:49:22.884Z,0.83
2022-09-17T19:51:49.474Z,1.60
2022-09-17T19:54:16.045Z,1.10
2022-09-17T19:56:42.616Z,0.90
2022-09-17T19:59:09.223Z,0.97
2022-09-17T20:01:35.887Z,0.93
2022-09-17T20:04:03.277Z,0.90
2022-09-17T20:06:33.358Z,0.97
2022-09-17T20:09:00.528Z,1.10
2022-09-17T20:11:27.532Z,1.00
2022-09-17T20:14:07.688Z,1.00
2022-09-17T20:16:36.431Z,1.00
2022-09-17T20:19:03.481Z,2.00
2022-09-17T20:21:30.291Z,1.43
2022-09-17T20:23:58.341Z,2.20
2022-09-17T20:26:26.370Z,1.10
2022-09-17T20:28:53.346Z,1.13
2022-09-17T20:31:23.202Z,1.43
2022-09-17T20:33:54.443Z,1.17
2022-09-17T20:36:26.173Z,1.27
2022-09-17T20:41:40.493Z,1.20
2022-09-17T20:44:07.582Z,0.80
2022-09-17T20:46:34.285Z,1.43
2022-09-17T20:49:00.993Z,1.10
2022-09-17T20:51:29.749Z,1.60
2022-09-17T20:53:57.631Z,1.93
2022-09-17T20:56:30.174Z,1.20
2022-09-17T20:59:03.917Z,1.70
2022-09-17T21:01:34.516Z,1.80
2022-09-17T21:04:02.575Z,1.40
2022-09-17T21:06:31.819Z,1.63
2022-09-17T21:09:01.804Z,1.23
2022-09-17T21:11:29.812Z,1.27
2022-09-17T21:13:56.632Z,1.53
2022-09-17T21:16:23.353Z,1.50
2022-09-17T21:18:56.482Z,1.70
2022-09-17T21:21:23.419Z,1.57
2022-09-17T21:23:50.741Z,1.47
2022-09-17T21:26:22.826Z,1.20
2022-09-17T21:28:51.526Z,1.40
2022-09-17T21:31:26.284Z,1.80
2022-09-17T21:34:00.427Z,1.37
2022-09-17T21:36:29.022Z,1.37
2022-09-17T21:39:29.487Z,1.00
2022-09-17T21:41:56.002Z,1.60
2022-09-17T21:44:22.590Z,1.33
2022-09-17T21:46:49.631Z,1.10
2022-09-17T21:49:17.330Z,2.23
2022-09-17T21:51:43.985Z,1.50
2022-09-17T21:54:18.585Z,1.90
2022-09-17T21:56:45.841Z,1.47
2022-09-17T21:59:14.476Z,1.57
2022-09-17T22:01:46.826Z,1.17
2022-09-17T22:04:18.702Z,1.13
2022-09-17T22:06:46.873Z,1.50
2022-09-17T22:09:17.581Z,1.23
2022-09-17T22:11:44.150Z,1.50
2022-09-17T22:14:13.909Z,1.23
2022-09-17T22:16:43.661Z,1.43
2022-09-17T22:19:14.664Z,0.93
2022-09-17T22:21:45.860Z,1.63
2022-09-17T22:24:13.693Z,1.37
2022-09-17T22:26:45.844Z,1.33
2022-09-17T22:29:18.486Z,1.10
2022-09-17T22:31:46.368Z,1.20
2022-09-17T22:34:15.862Z,1.77
2022-09-17T22:36:42.870Z,1.47
2022-09-17T22:39:09.886Z,1.70
2022-09-17T22:41:42.709Z,1.57
2022-09-17T22:44:12.513Z,1.23
2022-09-17T22:46:39.968Z,1.83
2022-09-17T22:49:08.178Z,1.50
2022-09-17T22:51:34.752Z,1.30
2022-09-17T22:54:01.639Z,1.70
2022-09-17T22:56:29.764Z,1.57
2022-09-17T22:58:57.805Z,1.60
2022-09-17T23:01:31.069Z,1.57
2022-09-17T23:03:58.673Z,1.60
2022-09-17T23:06:27.933Z,1.27
2022-09-17T23:08:55.136Z,1.67
2022-09-17T23:11:24.635Z,1.33
2022-09-17T23:13:51.919Z,1.07
2022-09-17T23:16:19.644Z,2.03
2022-09-17T23:18:46.513Z,1.33
2022-09-17T23:21:17.226Z,1.30
2022-09-17T23:23:46.418Z,1.03
2022-09-17T23:26:15.625Z,1.30
2022-09-17T23:28:42.361Z,1.50
2022-09-17T23:31:20.449Z,1.90
2022-09-17T23:33:48.283Z,2.00
2022-09-17T23:36:21.572Z,1.90
2022-09-17T23:38:49.645Z,1.73
2022-09-17T23:41:25.877Z,1.87
2022-09-17T23:43:54.901Z,2.20
2022-09-17T23:46:23.440Z,1.67
2022-09-17T23:48:51.579Z,1.97
2022-09-17T23:51:18.202Z,1.40
2022-09-17T23:53:45.080Z,1.40
2022-09-17T23:56:14.831Z,1.37
2022-09-17T23:58:42.061Z,1.50
